createdAt,value
2022-10-29T00:00:53.822Z,79.07
2022-10-29T00:01:54.042Z,79.55
2022-10-29T00:02:54.263Z,79.16
2022-10-29T00:03:54.069Z,79.16
2022-10-29T00:04:53.781Z,79.07
2022-10-29T00:05:54.058Z,79.16
2022-10-29T00:06:53.853Z,79.07
2022-10-29T00:07:54.005Z,79.16
2022-10-29T00:08:54.007Z,78.97
2022-10-29T00:09:54.010Z,79.16
2022-10-29T00:10:53.995Z,78.78
2022-10-29T00:11:53.993Z,78.97
2022-10-29T00:12:53.980Z,79.16
2022-10-29T00:13:53.722Z,79.16
2022-10-29T00:14:53.998Z,79.83
2022-10-29T00:15:53.965Z,79.83
2022-10-29T00:16:53.703Z,79.93
2022-10-29T00:17:54.171Z,79.83
2022-10-29T00:18:53.949Z,79.83
2022-10-29T00:19:53.991Z,79.83
2022-10-29T00:20:53.936Z,80.12
2022-10-29T00:21:53.980Z,79.36
2022-10-29T00:22:54.220Z,79.74
2022-10-29T00:23:53.659Z,79.07
2022-10-29T00:24:53.908Z,79.16
2022-10-29T00:25:53.908Z,79.07
2022-10-29T00:26:53.896Z,79.74
2022-10-29T00:27:53.885Z,80.12
2022-10-29T00:28:53.881Z,79.36
2022-10-29T00:29:53.634Z,79.74
2022-10-29T00:30:53.870Z,79.55
2022-10-29T00:31:53.886Z,79.74
2022-10-29T00:32:53.797Z,80.32
2022-10-29T00:33:53.846Z,79.93
2022-10-29T00:34:53.844Z,80.41
2022-10-29T00:35:53.860Z,80.6
2022-10-29T00:36:53.829Z,80.6
2022-10-29T00:37:53.933Z,80.7
2022-10-29T00:38:53.827Z,80.32
2022-10-29T00:39:53.808Z,80.79
2022-10-29T00:40:53.543Z,81.56
2022-10-29T00:41:53.797Z,81.18
2022-10-29T00:42:53.790Z,81.37
2022-10-29T00:43:53.528Z,81.27
2022-10-29T00:44:53.535Z,81.08
2022-10-29T00:45:53.765Z,81.43
2022-10-29T00:46:53.764Z,81.9
2022-10-29T00:47:54.043Z,82.38
2022-10-29T00:48:53.747Z,82.19
2022-10-29T00:49:53.739Z,82.38
2022-10-29T00:50:53.482Z,82.19
2022-10-29T00:51:53.497Z,82.38
2022-10-29T00:52:53.464Z,82.19
2022-10-29T00:53:53.740Z,83.05
2022-10-29T00:54:53.713Z,82.76
2022-10-29T00:55:53.697Z,83.34
2022-10-29T00:56:53.698Z,83.82
2022-10-29T00:57:54.075Z,83.72
2022-10-29T00:58:53.683Z,83.72
2022-10-29T00:59:53.449Z,83.15
2022-10-29T01:00:53.671Z,83.05
2022-10-29T01:01:53.826Z,82.67
2022-10-29T01:02:53.864Z,82.76
2022-10-29T01:03:53.647Z,83.34
2022-10-29T01:04:53.648Z,83.15
2022-10-29T01:05:53.637Z,83.05
2022-10-29T01:06:53.629Z,82.96
2022-10-29T01:07:53.643Z,82.86
2022-10-29T01:08:53.613Z,83.44
2022-10-29T01:09:53.632Z,83.44
2022-10-29T01:10:53.598Z,84.11
2022-10-29T01:11:53.596Z,84.2
2022-10-29T01:12:53.679Z,84.11
2022-10-29T01:13:53.580Z,84.39
2022-10-29T01:14:53.570Z,84.39
2022-10-29T01:15:53.567Z,84.11
2022-10-29T01:16:53.554Z,83.92
2022-10-29T01:17:53.816Z,84.3
2022-10-29T01:18:53.782Z,85.25
2022-10-29T01:19:53.541Z,85.16
2022-10-29T01:20:53.528Z,85.16
2022-10-29T01:21:53.524Z,85.02
2022-10-29T01:22:53.515Z,85.02
2022-10-29T01:23:53.533Z,85.31
2022-10-29T01:24:53.246Z,84.55
2022-10-29T01:25:53.522Z,84.74
2022-10-29T01:26:53.234Z,84.97
2022-10-29T01:27:53.785Z,84.83
2022-10-29T01:28:53.479Z,84.68
2022-10-29T01:29:53.212Z,84.58
2022-10-29T01:30:53.457Z,85.06
2022-10-29T01:31:53.199Z,85.12
2022-10-29T01:32:53.571Z,85.12
2022-10-29T01:33:53.446Z,84.83
2022-10-29T01:34:53.431Z,85.21
2022-10-29T01:35:53.426Z,85.41
2022-10-29T01:36:53.416Z,85.21
2022-10-29T01:37:53.415Z,85.41
2022-10-29T01:38:53.144Z,85.41
2022-10-29T01:39:53.167Z,85.79
2022-10-29T01:40:53.138Z,85.88
2022-10-29T01:41:53.424Z,85.98
2022-10-29T01:42:53.732Z,85.6
2022-10-29T01:43:53.375Z,85.69
2022-10-29T01:44:53.361Z,86.74
2022-10-29T01:45:53.100Z,86.7
2022-10-29T01:46:53.344Z,86.99
2022-10-29T01:47:53.432Z,87.08
2022-10-29T01:48:53.334Z,87.56
2022-10-29T01:49:53.326Z,87.85
2022-10-29T01:50:53.058Z,88.13
2022-10-29T01:51:53.053Z,88.62
2022-10-29T01:52:53.303Z,88.62
2022-10-29T01:53:53.039Z,88.62
2022-10-29T01:54:53.029Z,89.38
2022-10-29T01:55:53.306Z,89.53
2022-10-29T01:56:53.017Z,90.05
2022-10-29T01:57:53.566Z,90.15
2022-10-29T01:58:53.001Z,90.24
2022-10-29T01:59:58.641Z,90.44
2022-10-29T02:00:53.115Z,90.96
2022-10-29T02:01:53.376Z,90.87
2022-10-29T02:02:53.229Z,90.63
2022-10-29T02:03:53.218Z,91.11
2022-10-29T02:04:53.217Z,90.96
2022-10-29T02:05:52.953Z,90.67
2022-10-29T02:06:52.940Z,90.96
2022-10-29T02:07:53.193Z,91.16
2022-10-29T02:08:53.180Z,91.53
2022-10-29T02:09:52.922Z,91.73
2022-10-29T02:10:53.171Z,92.21
2022-10-29T02:11:52.925Z,92.11
2022-10-29T02:12:53.190Z,92.3
2022-10-29T02:13:53.165Z,92.21
2022-10-29T02:14:53.135Z,92.4
2022-10-29T02:15:53.125Z,92.78
2022-10-29T02:16:53.119Z,92.88
2022-10-29T02:17:53.402Z,93.07
2022-10-29T02:18:53.107Z,93.55
2022-10-29T02:19:52.949Z,93.45
2022-10-29T02:20:53.200Z,94.12
2022-10-29T02:21:53.186Z,94.5
2022-10-29T02:22:53.187Z,94.5
2022-10-29T02:23:53.167Z,94.7
2022-10-29T02:24:53.165Z,94.98
2022-10-29T02:25:53.356Z,95.22
2022-10-29T02:26:53.147Z,95.89
2022-10-29T02:27:53.394Z,96.75
2022-10-29T02:28:52.882Z,97.42
2022-10-29T02:29:53.146Z,97.71
2022-10-29T02:30:52.861Z,97.71
2022-10-29T02:31:52.854Z,97.8
2022-10-29T02:32:53.202Z,97.42
2022-10-29T02:33:53.091Z,97.8
2022-10-29T02:34:53.086Z,98.09
2022-10-29T02:35:52.819Z,98.47
2022-10-29T02:36:52.812Z,98.95
2022-10-29T02:37:53.060Z,98.66
2022-10-29T02:38:52.796Z,98.95
2022-10-29T02:39:52.794Z,99.43
2022-10-29T02:40:53.046Z,99.99
2022-10-29T02:41:53.035Z,99.99
2022-10-29T02:42:53.149Z,99.99
2022-10-29T02:43:53.034Z,99.99
2022-10-29T02:44:53.017Z,99.99
2022-10-29T02:45:53.021Z,99.99
2022-10-29T02:46:52.991Z,99.99
2022-10-29T02:47:53.149Z,99.99
2022-10-29T02:48:52.728Z,99.99
2022-10-29T02:49:52.961Z,99.99
2022-10-29T02:50:52.954Z,99.99
2022-10-29T02:51:52.687Z,99.99
2022-10-29T02:52:52.934Z,99.99
2022-10-29T02:53:52.942Z,99.99
2022-10-29T02:54:52.916Z,99.99
2022-10-29T02:55:52.662Z,99.99
2022-10-29T02:56:52.645Z,99.99
2022-10-29T02:57:52.795Z,99.99
2022-10-29T02:58:52.893Z,99.99
2022-10-29T02:59:52.906Z,99.99
2022-10-29T03:00:52.619Z,99.99
2022-10-29T03:01:53.288Z,99.99
2022-10-29T03:02:52.877Z,99.99
2022-10-29T03:03:52.849Z,99.99
2022-10-29T03:04:52.838Z,99.99
2022-10-29T03:05:52.577Z,99.99
2022-10-29T03:06:52.564Z,99.99
2022-10-29T03:07:52.813Z,99.99
2022-10-29T03:08:52.838Z,99.99
2022-10-29T03:09:52.801Z,99.99
2022-10-29T03:10:52.535Z,99.99
2022-10-29T03:11:52.525Z,99.99
2022-10-29T03:12:52.961Z,99.99
2022-10-29T03:13:52.517Z,99.99
2022-10-29T03:14:52.754Z,99.99
2022-10-29T03:15:52.514Z,99.99
2022-10-29T03:16:52.739Z,99.99
2022-10-29T03:17:52.885Z,99.99
2022-10-29T03:18:52.461Z,99.99
2022-10-29T03:19:52.712Z,99.99
2022-10-29T03:20:52.708Z,99.99
2022-10-29T03:21:52.446Z,99.99
2022-10-29T03:22:52.685Z,99.99
2022-10-29T03:23:52.678Z,99.99
2022-10-29T03:24:52.665Z,99.99
2022-10-29T03:25:58.077Z,99.99
2022-10-29T03:26:52.647Z,99.99
2022-10-29T03:27:52.664Z,99.99
2022-10-29T03:28:52.694Z,99.99
2022-10-29T03:29:52.404Z,99.99
2022-10-29T03:30:52.618Z,99.99
2022-10-29T03:31:52.380Z,99.99
2022-10-29T03:49:36.459Z,99.99
2022-10-29T03:50:36.402Z,99.99
2022-10-29T03:51:36.386Z,99.99
2022-10-29T03:52:36.379Z,99.99
2022-10-29T03:53:36.372Z,99.99
2022-10-29T03:54:36.360Z,99.99
2022-10-29T03:55:36.335Z,99.99
2022-10-29T03:56:36.087Z,99.99
2022-10-29T03:57:36.312Z,99.99
2022-10-29T03:58:36.048Z,99.99
2022-10-29T03:59:36.037Z,99.99
2022-10-29T04:00:36.306Z,99.99
2022-10-29T04:01:36.553Z,99.99
2022-10-29T04:02:36.398Z,99.99
2022-10-29T04:03:36.273Z,99.99
2022-10-29T04:04:36.240Z,99.99
2022-10-29T04:05:36.360Z,99.99
2022-10-29T04:06:36.216Z,99.99
2022-10-29T04:07:35.948Z,99.99
2022-10-29T04:08:36.197Z,99.99
2022-10-29T04:09:36.186Z,99.99
2022-10-29T04:10:35.919Z,99.99
2022-10-29T04:11:35.906Z,99.99
2022-10-29T04:12:36.157Z,99.99
2022-10-29T04:13:35.893Z,99.99
2022-10-29T04:14:38.971Z,99.99
2022-10-29T04:15:35.869Z,99.99
2022-10-29T04:16:35.860Z,99.99
2022-10-29T04:17:35.849Z,99.99
2022-10-29T04:18:36.096Z,99.99
2022-10-29T04:19:36.084Z,99.99
2022-10-29T04:26:34.529Z,99.99
2022-10-29T04:28:47.332Z,99.99
2022-10-29T04:29:46.905Z,99.99
2022-10-29T04:30:46.892Z,99.99
2022-10-29T04:31:46.624Z,99.99
2022-10-29T04:32:46.975Z,99.99
2022-10-29T04:33:46.605Z,99.99
2022-10-29T04:34:46.595Z,99.99
2022-10-29T04:35:46.587Z,99.99
2022-10-29T04:36:46.595Z,99.99
2022-10-29T04:37:46.598Z,99.99
2022-10-29T04:38:46.823Z,99.99
2022-10-29T04:39:46.814Z,99.99
2022-10-29T04:40:46.830Z,99.99
2022-10-29T04:41:46.792Z,99.99
2022-10-29T04:42:46.774Z,99.99
2022-10-29T04:43:46.524Z,99.99
2022-10-29T04:44:46.757Z,99.99
2022-10-29T04:45:46.521Z,99.99
2022-10-29T04:46:46.478Z,99.99
2022-10-29T04:47:46.742Z,99.99
2022-10-29T04:48:46.593Z,99.99
2022-10-29T04:49:46.451Z,99.99
2022-10-29T04:50:46.694Z,99.99
2022-10-29T04:51:47.339Z,99.99
2022-10-29T04:52:47.583Z,99.99
2022-10-29T04:53:47.344Z,99.99
2022-10-29T04:54:47.566Z,99.99
2022-10-29T04:55:47.569Z,99.99
2022-10-29T04:56:47.568Z,99.99
2022-10-29T04:57:47.281Z,99.99
2022-10-29T04:58:47.278Z,99.99
2022-10-29T04:59:47.264Z,99.99
2022-10-29T05:00:47.701Z,99.99
2022-10-29T05:01:47.575Z,99.99
2022-10-29T05:02:47.560Z,99.99
2022-10-29T05:03:47.822Z,99.99
2022-10-29T05:04:47.797Z,99.99
2022-10-29T05:05:47.535Z,99.99
2022-10-29T05:06:47.518Z,99.99
2022-10-29T05:07:47.517Z,99.99
2022-10-29T05:08:47.757Z,99.99
2022-10-29T05:09:47.774Z,99.99
2022-10-29T05:10:47.737Z,99.99
2022-10-29T05:11:47.730Z,99.99
2022-10-29T05:12:47.741Z,99.99
2022-10-29T05:13:47.707Z,99.99
2022-10-29T05:14:47.441Z,99.99
2022-10-29T05:15:54.341Z,99.99
2022-10-29T05:16:47.422Z,99.99
2022-10-29T05:17:47.666Z,99.99
2022-10-29T05:18:47.400Z,99.99
2022-10-29T05:19:47.654Z,99.99
2022-10-29T05:20:47.638Z,99.99
2022-10-29T05:21:47.628Z,99.99
2022-10-29T05:22:47.617Z,99.99
2022-10-29T05:23:47.611Z,99.99
2022-10-29T05:24:47.597Z,99.99
2022-10-29T05:25:47.356Z,99.99
2022-10-29T05:26:47.575Z,99.99
2022-10-29T05:27:47.623Z,99.99
2022-10-29T05:28:47.577Z,99.99
2022-10-29T05:29:47.544Z,99.99
2022-10-29T05:30:47.536Z,99.99
2022-10-29T05:31:47.524Z,99.99
2022-10-29T05:32:47.511Z,99.99
2022-10-29T05:33:48.982Z,99.99
2022-10-29T05:34:47.492Z,99.99
2022-10-29T05:35:47.234Z,99.99
2022-10-29T05:36:47.504Z,99.99
2022-10-29T05:37:47.466Z,99.99
2022-10-29T05:38:47.452Z,99.99
2022-10-29T05:39:47.442Z,99.99
2022-10-29T05:40:47.934Z,99.99
2022-10-29T05:41:47.444Z,99.99
2022-10-29T05:42:49.832Z,99.99
2022-10-29T05:43:47.140Z,99.99
2022-10-29T05:44:47.412Z,99.99
2022-10-29T05:45:47.378Z,99.99
2022-10-29T05:46:47.366Z,99.99
2022-10-29T05:47:47.352Z,99.99
2022-10-29T05:48:47.092Z,99.99
2022-10-29T05:49:47.329Z,99.99
2022-10-29T05:50:47.069Z,99.99
2022-10-29T05:51:47.804Z,99.99
2022-10-29T05:52:47.792Z,99.99
2022-10-29T05:53:47.782Z,99.99
2022-10-29T05:54:47.778Z,99.99
2022-10-29T05:55:47.759Z,99.99
2022-10-29T05:56:47.753Z,99.99
2022-10-29T05:57:47.763Z,99.99
2022-10-29T05:58:47.736Z,99.99
2022-10-29T05:59:47.718Z,99.99
2022-10-29T06:00:47.743Z,99.99
2022-10-29T06:01:48.002Z,99.99
2022-10-29T06:02:47.850Z,99.99
2022-10-29T06:03:47.825Z,99.99
2022-10-29T06:04:47.413Z,99.99
2022-10-29T06:05:47.403Z,99.99
2022-10-29T06:06:47.839Z,99.99
2022-10-29T06:07:47.638Z,99.99
2022-10-29T06:08:47.629Z,99.99
2022-10-29T06:09:47.614Z,99.99
2022-10-29T06:10:47.609Z,99.99
2022-10-29T06:11:47.338Z,99.99
2022-10-29T06:12:47.582Z,99.99
2022-10-29T06:13:47.600Z,99.99
2022-10-29T06:14:47.563Z,99.99
2022-10-29T06:15:47.553Z,99.99
2022-10-29T06:16:47.567Z,99.99
2022-10-29T06:17:47.533Z,99.99
2022-10-29T06:18:47.526Z,99.99
2022-10-29T06:19:47.519Z,99.99
2022-10-29T06:20:47.502Z,99.99
2022-10-29T06:21:47.494Z,99.99
2022-10-29T06:22:47.484Z,99.99
2022-10-29T06:23:47.486Z,99.99
2022-10-29T06:24:47.471Z,99.99
2022-10-29T06:25:47.194Z,99.99
2022-10-29T06:26:47.486Z,99.99
2022-10-29T06:27:47.433Z,99.99
2022-10-29T06:28:47.422Z,99.99
2022-10-29T06:29:47.184Z,99.99
2022-10-29T06:30:47.151Z,99.99
2022-10-29T06:31:47.403Z,99.99
2022-10-29T06:32:47.407Z,99.99
2022-10-29T06:33:47.615Z,99.99
2022-10-29T06:34:47.604Z,99.99
2022-10-29T06:35:47.857Z,99.99
2022-10-29T06:36:47.841Z,99.99
2022-10-29T06:37:47.574Z,99.99
2022-10-29T06:38:47.564Z,99.99
2022-10-29T06:39:47.813Z,99.99
2022-10-29T06:40:47.801Z,99.99
2022-10-29T06:41:47.793Z,99.99
2022-10-29T06:42:47.785Z,99.99
2022-10-29T06:43:47.775Z,99.99
2022-10-29T06:44:47.761Z,99.99
2022-10-29T06:45:47.523Z,99.99
2022-10-29T06:46:47.754Z,99.99
2022-10-29T06:47:47.485Z,99.99
2022-10-29T06:48:47.751Z,99.99
2022-10-29T06:49:47.718Z,99.99
2022-10-29T06:50:47.705Z,99.99
2022-10-29T06:51:47.441Z,99.99
2022-10-29T06:52:47.690Z,99.99
2022-10-29T06:53:47.423Z,99.99
2022-10-29T06:54:47.670Z,99.99
2022-10-29T06:55:47.662Z,99.99
2022-10-29T06:56:47.650Z,99.99
2022-10-29T06:57:47.387Z,99.99
2022-10-29T06:58:47.414Z,99.99
2022-10-29T06:59:47.627Z,99.99
2022-10-29T07:00:47.758Z,99.99
2022-10-29T07:01:47.729Z,99.99
2022-10-29T07:02:47.339Z,99.99
2022-10-29T07:03:47.588Z,99.99
2022-10-29T07:04:47.601Z,99.99
2022-10-29T07:05:47.312Z,99.99
2022-10-29T07:06:47.305Z,99.99
2022-10-29T07:07:47.298Z,99.99
2022-10-29T07:08:47.541Z,99.99
2022-10-29T07:09:47.534Z,99.99
2022-10-29T07:10:47.527Z,99.99
2022-10-29T07:11:47.522Z,99.99
2022-10-29T07:12:47.256Z,99.99
2022-10-29T07:13:47.497Z,99.99
2022-10-29T07:14:47.491Z,99.99
2022-10-29T07:15:47.482Z,99.99
2022-10-29T07:16:47.476Z,99.99
2022-10-29T07:17:47.490Z,99.99
2022-10-29T07:18:47.456Z,99.99
2022-10-29T07:19:47.453Z,99.99
2022-10-29T07:20:47.462Z,99.99
2022-10-29T07:21:47.431Z,99.99
2022-10-29T07:22:47.422Z,99.99
2022-10-29T07:23:47.159Z,99.99
2022-10-29T07:24:47.406Z,99.99
2022-10-29T07:25:47.392Z,99.99
2022-10-29T07:26:47.389Z,99.99
2022-10-29T07:27:47.582Z,99.99
2022-10-29T07:28:47.373Z,99.99
2022-10-29T07:29:47.361Z,99.99
2022-10-29T07:30:47.098Z,99.99
2022-10-29T07:31:47.089Z,99.99
2022-10-29T07:32:47.342Z,99.99
2022-10-29T07:33:47.097Z,99.99
2022-10-29T07:34:47.067Z,99.99
2022-10-29T07:35:47.318Z,99.99
2022-10-29T07:36:47.331Z,99.99
2022-10-29T07:37:47.296Z,99.99
2022-10-29T07:38:47.296Z,99.99
2022-10-29T07:39:47.037Z,99.99
2022-10-29T07:40:47.038Z,99.99
2022-10-29T07:41:47.267Z,99.99
2022-10-29T07:42:47.261Z,99.99
2022-10-29T07:43:47.249Z,99.99
2022-10-29T07:44:46.988Z,99.99
2022-10-29T07:45:47.240Z,99.99
2022-10-29T07:46:47.225Z,99.99
2022-10-29T07:47:47.217Z,99.99
2022-10-29T07:48:47.217Z,99.99
2022-10-29T07:49:47.229Z,99.99
2022-10-29T07:50:46.939Z,99.99
2022-10-29T07:51:47.186Z,99.99
2022-10-29T07:52:47.203Z,99.99
2022-10-29T07:53:46.910Z,99.99
2022-10-29T07:54:47.164Z,99.99
2022-10-29T07:55:47.301Z,99.99
2022-10-29T07:56:50.211Z,99.99
2022-10-29T07:57:47.138Z,99.99
2022-10-29T07:58:47.133Z,99.99
2022-10-29T07:59:47.127Z,99.99
2022-10-29T08:00:47.263Z,99.99
2022-10-29T08:01:47.354Z,99.99
2022-10-29T08:02:47.104Z,99.99
2022-10-29T08:03:47.095Z,99.99
2022-10-29T08:04:47.092Z,99.99
2022-10-29T08:05:48.198Z,99.99
2022-10-29T08:06:47.075Z,99.99
2022-10-29T08:07:47.064Z,99.99
2022-10-29T08:08:47.271Z,99.99
2022-10-29T08:09:47.047Z,99.99
2022-10-29T08:10:47.045Z,99.99
2022-10-29T08:12:47.031Z,99.99
2022-10-29T08:13:47.020Z,99.99
2022-10-29T08:14:47.011Z,99.99
2022-10-29T08:15:46.753Z,99.99
2022-10-29T08:16:46.996Z,99.99
2022-10-29T08:17:46.993Z,99.99
2022-10-29T08:18:46.980Z,99.99
2022-10-29T08:19:47.005Z,99.99
2022-10-29T08:20:46.716Z,99.99
2022-10-29T08:21:46.732Z,99.99
2022-10-29T08:22:46.957Z,99.99
2022-10-29T08:23:46.955Z,99.99
2022-10-29T08:24:46.965Z,99.99
2022-10-29T08:25:46.685Z,99.99
2022-10-29T08:26:46.670Z,99.99
2022-10-29T08:27:47.070Z,99.99
2022-10-29T08:28:46.655Z,99.99
2022-10-29T08:29:46.658Z,99.99
2022-10-29T08:30:46.643Z,99.99
2022-10-29T08:31:46.635Z,99.99
2022-10-29T08:32:46.880Z,99.99
2022-10-29T08:33:46.640Z,99.99
2022-10-29T08:34:46.869Z,99.99
2022-10-29T08:35:46.608Z,99.99
2022-10-29T08:36:46.866Z,99.99
2022-10-29T08:37:46.873Z,99.99
2022-10-29T08:38:46.586Z,99.87
2022-10-29T08:39:46.844Z,99.58
2022-10-29T08:40:46.853Z,99.39
2022-10-29T08:41:46.825Z,98.81
2022-10-29T08:42:46.559Z,99.01
2022-10-29T08:43:49.849Z,98.14
2022-10-29T08:44:46.553Z,96.61
2022-10-29T08:45:46.800Z,96.08
2022-10-29T08:46:46.799Z,95.41
2022-10-29T08:47:46.800Z,95.12
2022-10-29T08:48:46.795Z,94.84
2022-10-29T08:49:46.516Z,93.88
2022-10-29T08:50:46.770Z,92.34
2022-10-29T08:51:46.502Z,91.67
2022-10-29T08:54:10.191Z,90.85
2022-10-29T08:54:46.741Z,90.47
2022-10-29T08:55:46.745Z,90.28
2022-10-29T08:56:46.750Z,90.37
2022-10-29T08:57:46.463Z,90.28
2022-10-29T08:58:46.712Z,89.22
2022-10-29T08:59:46.714Z,88.65
2022-10-29T09:00:46.616Z,89.03
2022-10-29T09:01:46.794Z,88.84
2022-10-29T09:02:46.691Z,89.03
2022-10-29T09:03:46.685Z,89.22
2022-10-29T09:04:46.849Z,89.22
2022-10-29T09:05:46.586Z,88.79
2022-10-29T09:06:46.582Z,88.55
2022-10-29T09:07:46.828Z,88.4
2022-10-29T09:08:46.852Z,88.02
2022-10-29T09:09:46.820Z,87.92
2022-10-29T09:10:46.556Z,87.25
2022-10-29T09:11:46.800Z,87.44
2022-10-29T09:12:46.837Z,87.25
2022-10-29T09:13:46.540Z,86.77
2022-10-29T09:14:46.788Z,86.87
2022-10-29T09:15:46.785Z,85.62
2022-10-29T09:16:46.797Z,84.08
2022-10-29T09:17:46.774Z,84.7
2022-10-29T09:18:46.770Z,83.74
2022-10-29T09:19:46.763Z,83.45
2022-10-29T09:20:46.506Z,83.84
2022-10-29T09:21:46.745Z,83.45
2022-10-29T09:22:46.745Z,83.84
2022-10-29T09:23:46.742Z,83.64
2022-10-29T09:24:46.501Z,84.12
2022-10-29T09:25:46.728Z,83.64
2022-10-29T09:26:46.724Z,83.26
2022-10-29T09:27:46.462Z,83.26
2022-10-29T09:28:46.740Z,83.45
2022-10-29T09:29:46.707Z,82.68
2022-10-29T09:30:46.448Z,82.1
2022-10-29T09:31:46.695Z,81.53
2022-10-29T09:32:46.816Z,81.24
2022-10-29T09:33:46.684Z,80.99
2022-10-29T09:34:46.680Z,80.61
2022-10-29T09:35:46.693Z,80.61
2022-10-29T09:36:46.680Z,80.9
2022-10-29T09:37:46.670Z,80.22
2022-10-29T09:38:46.661Z,80.13
2022-10-29T09:39:46.399Z,80.42
2022-10-29T09:40:46.676Z,80.42
2022-10-29T09:41:46.646Z,79.65
2022-10-29T09:42:46.650Z,79.46
2022-10-29T09:43:46.636Z,80.19
2022-10-29T09:44:46.661Z,80.57
2022-10-29T09:45:46.374Z,80.57
2022-10-29T09:46:46.625Z,80.96
2022-10-29T09:47:46.615Z,80.76
2022-10-29T09:48:46.612Z,80.47
2022-10-29T09:49:46.611Z,80.19
2022-10-29T09:50:46.353Z,80.28
2022-10-29T09:51:46.598Z,79.42
2022-10-29T09:52:46.605Z,79.8
2022-10-29T09:53:46.618Z,79.27
2022-10-29T09:54:46.589Z,79.27
2022-10-29T09:55:46.577Z,79.17
2022-10-29T09:56:48.529Z,78.4
2022-10-29T09:57:46.572Z,78.78
2022-10-29T09:58:46.564Z,79.46
2022-10-29T09:59:46.564Z,80.13
2022-10-29T10:00:46.607Z,79.07
2022-10-29T10:01:46.558Z,78.5
2022-10-29T10:02:46.415Z,78.15
2022-10-29T10:03:46.548Z,78.06
2022-10-29T10:04:46.543Z,77.48
2022-10-29T10:05:46.533Z,77.29
2022-10-29T10:06:46.271Z,77.76
2022-10-29T10:07:46.264Z,77.19
2022-10-29T10:08:46.516Z,78.63
2022-10-29T10:09:46.513Z,78.34
2022-10-29T10:10:46.506Z,77.19
2022-10-29T10:11:46.509Z,77.48
2022-10-29T10:12:46.291Z,77.19
2022-10-29T10:13:46.236Z,77
2022-10-29T10:14:46.230Z,75.94
2022-10-29T10:15:46.486Z,76.04
2022-10-29T10:16:46.513Z,76.52
2022-10-29T10:17:46.219Z,77.76
2022-10-29T10:18:46.208Z,77.38
2022-10-29T10:19:46.210Z,77.09
2022-10-29T10:20:46.206Z,76.23
2022-10-29T10:21:46.460Z,76.42
2022-10-29T10:22:46.581Z,76.9
2022-10-29T10:23:46.452Z,77
2022-10-29T10:24:46.461Z,76.46
2022-10-29T10:25:46.571Z,76.65
2022-10-29T10:26:46.433Z,76.56
2022-10-29T10:27:46.530Z,75.82
2022-10-29T10:28:46.452Z,74.76
2022-10-29T10:29:46.429Z,74.38
2022-10-29T10:30:46.422Z,74.19
2022-10-29T10:31:46.418Z,73.71
2022-10-29T10:32:46.436Z,72.88
2022-10-29T10:33:46.416Z,72.78
2022-10-29T10:34:46.145Z,72.2
2022-10-29T10:35:46.145Z,72.49
2022-10-29T10:36:46.390Z,73.16
2022-10-29T10:37:46.405Z,73.2
2022-10-29T10:38:46.460Z,71.37
2022-10-29T10:39:46.413Z,71.18
2022-10-29T10:40:46.378Z,70.06
2022-10-29T10:41:46.118Z,69.87
2022-10-29T10:42:46.371Z,69.96
2022-10-29T10:43:46.112Z,69.51
2022-10-29T10:44:46.391Z,69.23
2022-10-29T10:45:46.106Z,69.32
2022-10-29T10:46:46.356Z,69.23
2022-10-29T10:47:46.101Z,69.32
2022-10-29T10:48:46.378Z,69.32
2022-10-29T10:49:46.349Z,68.55
2022-10-29T10:50:46.089Z,67.88
2022-10-29T10:51:46.342Z,66.52
2022-10-29T10:52:46.083Z,66.97
2022-10-29T10:53:47.106Z,67.55
2022-10-29T10:54:47.546Z,67.36
2022-10-29T10:55:47.357Z,67.74
2022-10-29T10:56:47.354Z,67.46
2022-10-29T10:57:47.355Z,68.52
2022-10-29T10:58:47.351Z,68.42
2022-10-29T10:59:47.345Z,68.52
2022-10-29T11:00:47.514Z,68.52
2022-10-29T11:01:47.564Z,68.52
2022-10-29T11:02:47.336Z,68.71
2022-10-29T11:03:47.336Z,68.42
2022-10-29T11:04:47.360Z,68.52
2022-10-29T11:05:47.329Z,67.46
2022-10-29T11:06:47.130Z,67.07
2022-10-29T11:07:47.322Z,67.55
2022-10-29T11:08:47.067Z,67.42
2022-10-29T11:09:47.317Z,67.71
2022-10-29T11:10:47.058Z,67.33
2022-10-29T11:11:47.307Z,67.52
2022-10-29T11:12:47.057Z,67.9
2022-10-29T11:13:47.309Z,68.1
2022-10-29T11:14:47.053Z,67.9
2022-10-29T11:15:47.064Z,67.71
2022-10-29T11:16:47.323Z,68.48
2022-10-29T11:17:54.017Z,68.96
2022-10-29T11:18:47.313Z,68.58
2022-10-29T11:19:47.033Z,68.48
2022-10-29T11:20:47.314Z,67.9
2022-10-29T11:21:47.285Z,68.29
2022-10-29T11:22:47.285Z,68.19
2022-10-29T11:23:47.038Z,68.29
2022-10-29T11:24:47.274Z,68.29
2022-10-29T11:25:47.277Z,68.38
2022-10-29T11:26:47.285Z,68.29
2022-10-29T11:27:47.008Z,69.15
2022-10-29T11:28:47.264Z,69.35
2022-10-29T11:29:51.670Z,68.96
2022-10-29T11:30:47.257Z,68.38
2022-10-29T11:31:47.011Z,68.77
2022-10-29T11:32:47.277Z,69.02
2022-10-29T11:33:47.244Z,69.22
2022-10-29T11:34:47.247Z,70.09
2022-10-29T11:35:46.987Z,70.37
2022-10-29T11:36:47.258Z,71.01
2022-10-29T11:37:47.505Z,71.3
2022-10-29T11:38:47.498Z,71.4
2022-10-29T11:39:47.496Z,71.4
2022-10-29T11:40:47.497Z,71.3
2022-10-29T11:41:47.494Z,72.07
2022-10-29T11:42:47.241Z,71.84
2022-10-29T11:43:47.487Z,72.45
2022-10-29T11:44:47.220Z,73.19
2022-10-29T11:45:47.482Z,73
2022-10-29T11:46:47.476Z,72.8
2022-10-29T11:47:47.214Z,73
2022-10-29T11:48:47.239Z,72.8
2022-10-29T11:49:47.463Z,73.67
2022-10-29T11:50:47.199Z,73.77
2022-10-29T11:51:47.455Z,73.57
2022-10-29T11:52:47.472Z,73.47
2022-10-29T11:53:47.192Z,73.67
2022-10-29T11:54:47.445Z,72.9
2022-10-29T11:55:47.183Z,73.67
2022-10-29T11:56:47.436Z,73.19
2022-10-29T11:57:47.436Z,73
2022-10-29T11:58:47.172Z,73.38
2022-10-29T11:59:47.425Z,73.96
2022-10-29T12:00:47.419Z,73.77
2022-10-29T12:01:47.692Z,74.05
2022-10-29T12:02:47.412Z,73.67
2022-10-29T12:03:47.339Z,74.05
2022-10-29T12:04:47.429Z,74.05
2022-10-29T12:05:47.403Z,73.38
2022-10-29T12:06:47.397Z,73.42
2022-10-29T12:07:47.142Z,73.71
2022-10-29T12:08:47.411Z,73.51
2022-10-29T12:09:47.386Z,73.13
2022-10-29T12:10:47.131Z,73.03
2022-10-29T12:11:47.128Z,73.03
2022-10-29T12:12:47.119Z,73.99
2022-10-29T12:13:47.373Z,73.42
2022-10-29T12:14:47.369Z,72.17
2022-10-29T12:15:47.363Z,72.45
2022-10-29T12:16:47.365Z,72.65
2022-10-29T12:17:47.234Z,71.97
2022-10-29T12:18:47.098Z,71.78
2022-10-29T12:19:47.357Z,72.36
2022-10-29T12:20:47.372Z,72.17
2022-10-29T12:21:47.086Z,71.4
2022-10-29T12:22:47.342Z,71.43
2022-10-29T12:23:47.334Z,71.01
2022-10-29T12:24:47.357Z,70.86
2022-10-29T12:25:47.070Z,69.99
2022-10-29T12:26:47.323Z,70.28
2022-10-29T12:27:47.318Z,70.28
2022-10-29T12:28:47.320Z,69.99
2022-10-29T12:29:47.314Z,70.37
2022-10-29T12:30:47.311Z,69.7
2022-10-29T12:31:47.303Z,69.99
2022-10-29T12:32:47.308Z,69.7
2022-10-29T12:33:47.302Z,70.05
2022-10-29T12:34:47.294Z,69.95
2022-10-29T12:35:47.155Z,70.72
2022-10-29T12:36:47.064Z,70.82
2022-10-29T12:37:47.284Z,70.72
2022-10-29T12:38:47.285Z,71.49
2022-10-29T12:39:47.275Z,71.69
2022-10-29T12:40:47.301Z,71.4
2022-10-29T12:41:47.270Z,71.88
2022-10-29T12:42:47.267Z,71.4
2022-10-29T12:43:47.261Z,71.2
2022-10-29T12:44:47.888Z,71.4
2022-10-29T12:46:21.967Z,71.24
2022-10-29T12:46:47.255Z,71.53
2022-10-29T12:47:46.995Z,71.04
2022-10-29T12:48:46.993Z,71.43
2022-10-29T12:49:46.985Z,71.72
2022-10-29T12:50:47.237Z,71.43
2022-10-29T12:51:47.116Z,71.53
2022-10-29T12:52:47.259Z,71.43
2022-10-29T12:53:47.221Z,71.34
2022-10-29T12:54:47.233Z,71.14
2022-10-29T12:55:47.220Z,71.43
2022-10-29T12:56:51.829Z,72.11
2022-10-29T12:57:46.972Z,71.91
2022-10-29T12:58:47.216Z,71.91
2022-10-29T12:59:46.949Z,71.81
2022-10-29T13:00:47.461Z,71.34
2022-10-29T13:02:13.037Z,71.14
2022-10-29T13:02:47.727Z,71.3
2022-10-29T13:03:47.197Z,71.59
2022-10-29T13:04:46.945Z,71.4
2022-10-29T13:05:47.198Z,71.97
2022-10-29T13:06:47.189Z,72.36
2022-10-29T13:07:47.230Z,71.97
2022-10-29T13:08:47.206Z,72.45
2022-10-29T13:09:50.932Z,73.03
2022-10-29T13:10:46.914Z,73.32
2022-10-29T13:11:47.164Z,73.03
2022-10-29T13:12:47.192Z,73.03
2022-10-29T13:13:47.158Z,73.61
2022-10-29T13:14:47.157Z,73.99
2022-10-29T13:15:46.896Z,73.71
2022-10-29T13:16:47.153Z,73.8
2022-10-29T13:17:47.144Z,73.99
2022-10-29T13:18:47.152Z,74.76
2022-10-29T13:19:47.144Z,74.86
2022-10-29T13:20:46.877Z,74.67